EHKD/DHR METAR and TAF weather

Enter ICAO airport designator
Station Type Date Time Source
EHKD METAR 2019/12/13 01:25 UTC NOAA

EHKD 130125Z AUTO 16022G33KT 130V190 9999 -DZ FEW009 BKN010 BKN014 FEW015CB 04/03 Q0974 GRN


Station Type Date Time Source
EHKD Decoded METAR 2019/12/13 01:25 UTC NOAA

De Kooy, Netherlands (EHKD) 52-55N 004-47E 14M
Dec 12, 2019 - 08:25 PM EST / 2019.12.13 0125 UTC
Wind: from the SSE (160 degrees) at 25 MPH (22 KT) gusting to 38 MPH (33 KT) (direction variable):0
Visibility: greater than 7 mile(s):0
Sky conditions: mostly cloudy
Weather: light drizzle; Cumulonimbus clouds observed
Temperature: 39 F (4 C)
Dew Point: 37 F (3 C)
Relative Humidity: 93%
Pressure (altimeter): 28.76 in. Hg (0974 hPa)
ob: EHKD 130125Z AUTO 16022G33KT 130V190 9999 -DZ FEW009 BKN010 BKN014 FEW015CB 04/03 Q0974 GRN
cycle: 1

Station Type Date Time Source
EHKD TAF 2019/12/12 18:57 UTC NOAA

TAF EHKD 121713Z 1218/1306 16015G25KT 9999 SCT025 BKN030
BECMG 1219/1221 FEW012 SCT018 BKN020
TEMPO 1222/1303 15017G35KT 4000 RADZ SCT005 SCT012 BKN018
TEMPO 1303/1306 4000 RADZ SCT005 SCT012 BKN018

Example: see airport list